Time;durP1;ratioP1;P1;durP2;ratioP2;P2;SDS_P1;SDS_P2;PMS_P1;PMS_P2;Temp;Humidity;BMP_temperature;BMP_pressure;BME280_temperature;BME280_humidity;BME280_pressure;Samples;Min_cycle;Max_cycle;Signal;HPM_P1;HPM_P2
2021/11/08 00:02:24;;;;;;;30.53;5.43;;;;;;;7.37;100.00;100455.56;7395659;19;20421;-54
2021/11/08 00:04:54;;;;;;;27.90;5.30;;;;;;;7.38;100.00;100452.19;7403476;19;20449;-55
2021/11/08 00:07:24;;;;;;;34.77;6.17;;;;;;;7.35;100.00;100464.91;7399922;19;20688;-46
2021/11/08 00:09:53;;;;;;;26.37;4.20;;;;;;;7.37;100.00;100458.13;7403069;19;20403;-47
2021/11/08 00:12:24;;;;;;;36.10;4.43;;;;;;;7.38;100.00;100461.59;7395578;19;20738;-49
2021/11/08 00:14:58;;;;;;;32.17;5.67;;;;;;;7.42;100.00;100466.97;7403684;19;20396;-53
2021/11/08 00:17:48;;;;;;;26.83;4.40;;;;;;;7.41;100.00;100472.00;7395759;19;20428;-52
2021/11/08 00:20:24;;;;;;;28.77;5.20;;;;;;;7.39;100.00;100471.94;7401800;19;20450;-53
2021/11/08 00:22:54;;;;;;;24.37;5.10;;;;;;;7.42;100.00;100472.09;7398551;19;20520;-52
2021/11/08 00:25:23;;;;;;;38.50;5.33;;;;;;;7.43;100.00;100475.53;7401798;19;20401;-51
2021/11/08 00:27:54;;;;;;;33.47;4.80;;;;;;;7.43;100.00;100471.28;7394739;19;20492;-49
2021/11/08 00:30:27;;;;;;;29.73;4.70;;;;;;;7.38;100.00;100477.88;7401816;19;20395;-49
2021/11/08 00:32:58;;;;;;;32.20;4.87;;;;;;;7.39;100.00;100483.91;7393970;19;20478;-49
2021/11/08 00:35:28;;;;;;;36.60;6.40;;;;;;;7.35;100.00;100488.00;7402723;19;20738;-49
2021/11/08 00:38:01;;;;;;;24.63;5.73;;;;;;;7.32;100.00;100482.69;7399074;19;20433;-51
2021/11/08 00:40:30;;;;;;;33.07;4.80;;;;;;;7.31;100.00;100491.19;7401293;19;20729;-50
2021/11/08 00:43:00;;;;;;;35.10;5.03;;;;;;;7.27;100.00;100491.84;7394757;19;20506;-49
2021/11/08 00:45:32;;;;;;;41.50;6.20;;;;;;;7.29;100.00;100498.81;7401823;19;20713;-49
2021/11/08 00:48:02;;;;;;;32.17;5.27;;;;;;;7.26;100.00;100490.06;7394840;19;20428;-51
2021/11/08 00:50:32;;;;;;;31.13;4.43;;;;;;;7.26;100.00;100502.91;7401527;19;20388;-47
2021/11/08 00:53:02;;;;;;;19.83;5.30;;;;;;;7.25;100.00;100506.28;7397031;19;20757;-47
2021/11/08 00:55:32;;;;;;;37.37;4.43;;;;;;;7.21;100.00;100505.25;7402311;19;20398;-50
2021/11/08 00:58:02;;;;;;;22.90;3.43;;;;;;;7.20;100.00;100502.59;7398119;19;20422;-48
2021/11/08 01:00:34;;;;;;;41.43;4.20;;;;;;;7.15;100.00;100502.38;7405059;19;20664;-49
2021/11/08 01:03:06;;;;;;;16.27;4.10;;;;;;;7.22;100.00;100513.84;7393544;19;20405;-48
2021/11/08 01:05:35;;;;;;;24.03;3.60;;;;;;;7.18;100.00;100520.47;7401870;19;20450;-52
2021/11/08 01:08:06;;;;;;;21.90;3.27;;;;;;;7.21;100.00;100528.34;7400164;19;20492;-51
2021/11/08 01:10:35;;;;;;;20.97;3.40;;;;;;;7.20;100.00;100535.94;7403172;19;20852;-47
2021/11/08 01:13:05;;;;;;;19.23;3.60;;;;;;;7.22;100.00;100534.38;7392921;19;20429;-48
2021/11/08 01:15:37;;;;;;;23.43;3.37;;;;;;;7.23;100.00;100539.56;7401113;19;20431;-48
2021/11/08 01:18:06;;;;;;;19.50;3.50;;;;;;;7.19;100.00;100542.78;7394287;19;20493;-51
2021/11/08 01:20:36;;;;;;;26.80;4.90;;;;;;;7.21;100.00;100545.41;7400832;19;20397;-52
2021/11/08 01:23:07;;;;;;;29.60;3.77;;;;;;;7.18;100.00;100546.13;7396533;19;20868;-48
2021/11/08 01:25:37;;;;;;;33.73;4.00;;;;;;;7.10;100.00;100543.19;7401257;19;20628;-49
2021/11/08 01:28:08;;;;;;;22.10;4.20;;;;;;;7.08;100.00;100547.34;7392901;19;20433;-50
2021/11/08 01:30:40;;;;;;;26.20;3.53;;;;;;;7.01;100.00;100547.81;7399509;19;20393;-50
2021/11/08 01:33:15;;;;;;;18.73;4.00;;;;;;;7.00;100.00;100559.78;7392441;19;20812;-50
2021/11/08 01:35:58;;;;;;;22.20;4.10;;;;;;;6.97;100.00;100562.16;7401253;19;20448;-53
2021/11/08 01:38:36;;;;;;;28.30;3.30;;;;;;;6.98;100.00;100569.06;7396968;19;20881;-48
2021/11/08 01:41:06;;;;;;;20.33;2.93;;;;;;;6.99;100.00;100564.81;7400372;19;20462;-49
2021/11/08 01:43:36;;;;;;;34.03;3.23;;;;;;;7.10;100.00;100571.41;7391738;19;20496;-49
2021/11/08 01:46:08;;;;;;;23.53;3.83;;;;;;;7.07;100.00;100576.34;7400257;19;20386;-49
2021/11/08 01:48:37;;;;;;;16.37;3.23;;;;;;;7.10;100.00;100573.06;7393058;19;20425;-53
2021/11/08 01:51:07;;;;;;;21.50;3.33;;;;;;;7.09;100.00;100574.78;7399840;19;20873;-49
2021/11/08 01:53:38;;;;;;;17.87;2.53;;;;;;;7.10;100.00;100583.34;7395103;19;20454;-49
2021/11/08 01:56:08;;;;;;;22.83;4.00;;;;;;;7.13;100.00;100593.78;7399849;19;20389;-52
2021/11/08 01:58:38;;;;;;;13.90;2.63;;;;;;;7.13;100.00;100586.94;7392617;19;20502;-54
2021/11/08 02:01:11;;;;;;;20.60;3.20;;;;;;;7.14;100.00;100586.16;7399490;19;20395;-52
2021/11/08 02:03:41;;;;;;;17.37;2.40;;;;;;;7.14;100.00;100592.97;7389237;19;20418;-53
2021/11/08 02:06:10;;;;;;;17.97;2.43;;;;;;;7.13;100.00;100591.22;7399681;19;20410;-50
2021/11/08 02:08:40;;;;;;;15.13;3.10;;;;;;;7.09;100.00;100587.59;7393633;19;20691;-47
2021/11/08 02:11:10;;;;;;;22.80;3.43;;;;;;;7.11;100.00;100596.25;7399348;19;20390;-52
2021/11/08 02:13:39;;;;;;;25.30;3.10;;;;;;;7.12;100.00;100594.56;7391076;19;20502;-55
2021/11/08 02:16:11;;;;;;;25.13;3.63;;;;;;;7.12;100.00;100597.13;7399856;19;20885;-53
2021/11/08 02:18:41;;;;;;;26.90;4.13;;;;;;;7.09;100.00;100605.56;7392087;19;20417;-54
2021/11/08 02:21:13;;;;;;;18.27;3.40;;;;;;;7.10;100.00;100604.75;7398859;19;20456;-54
2021/11/08 02:23:47;;;;;;;22.67;3.90;;;;;;;7.12;100.00;100608.28;7394305;19;20419;-50
2021/11/08 02:26:18;;;;;;;18.30;3.93;;;;;;;7.09;100.00;100617.50;7399402;19;20393;-52
2021/11/08 02:28:50;;;;;;;22.20;4.80;;;;;;;7.11;100.00;100616.78;7388086;19;20439;-50
2021/11/08 02:31:22;;;;;;;25.40;4.80;;;;;;;7.08;100.00;100621.72;7399422;19;20462;-49
2021/11/08 02:33:55;;;;;;;25.30;4.00;;;;;;;7.09;100.00;100615.84;7390297;19;20418;-47
2021/11/08 02:36:29;;;;;;;15.03;3.77;;;;;;;7.10;100.00;100630.41;7399364;19;20450;-53
2021/11/08 02:39:00;;;;;;;12.80;4.27;;;;;;;7.08;100.00;100621.72;7394911;19;20881;-48
2021/11/08 02:41:30;;;;;;;19.50;3.80;;;;;;;7.05;100.00;100633.53;7399227;19;20646;-46
2021/11/08 02:44:03;;;;;;;22.87;4.20;;;;;;;7.02;100.00;100627.44;7396354;19;20756;-49
2021/11/08 02:46:38;;;;;;;19.23;3.80;;;;;;;7.02;100.00;100636.78;7398485;19;20389;-50
2021/11/08 02:49:09;;;;;;;29.73;4.20;;;;;;;6.98;100.00;100633.19;7397593;19;20422;-52
2021/11/08 02:51:44;;;;;;;13.53;2.87;;;;;;;6.94;100.00;100632.94;7399235;19;20409;-53
2021/11/08 02:54:23;;;;;;;21.63;4.17;;;;;;;6.91;100.00;100627.66;7398280;19;20393;-54
2021/11/08 02:56:52;;;;;;;23.40;4.43;;;;;;;6.91;100.00;100637.91;7391371;19;20382;-54
2021/11/08 02:59:23;;;;;;;19.47;3.90;;;;;;;6.89;100.00;100641.25;7401263;19;20465;-53
2021/11/08 03:01:55;;;;;;;21.17;3.23;;;;;;;6.88;100.00;100643.75;7390184;19;20401;-53
2021/11/08 03:04:28;;;;;;;14.73;2.90;;;;;;;6.85;100.00;100652.16;7402403;19;20418;-49
2021/11/08 03:07:00;;;;;;;18.60;3.23;;;;;;;6.89;100.00;100658.34;7394528;19;20476;-49
2021/11/08 03:09:33;;;;;;;25.40;3.87;;;;;;;6.92;100.00;100663.63;7401073;19;20381;-52
2021/11/08 03:12:09;;;;;;;22.20;2.90;;;;;;;6.94;100.00;100666.28;7390540;19;20426;-54
2021/11/08 03:14:42;;;;;;;12.10;2.60;;;;;;;6.96;100.00;100668.16;7399704;19;20392;-53
2021/11/08 03:17:14;;;;;;;16.27;2.20;;;;;;;6.98;100.00;100661.41;7397673;19;20421;-54
2021/11/08 03:19:44;;;;;;;14.20;2.63;;;;;;;7.05;100.00;100672.00;7404678;19;20390;-51
2021/11/08 03:22:20;;;;;;;18.00;3.10;;;;;;;7.03;100.00;100675.38;7400213;19;20879;-54
2021/11/08 03:24:53;;;;;;;18.90;3.00;;;;;;;7.06;100.00;100679.78;7405151;19;20448;-55
2021/11/08 03:27:28;;;;;;;11.43;2.67;;;;;;;7.06;100.00;100674.66;7399462;19;20449;-55
2021/11/08 03:29:58;;;;;;;21.10;2.77;;;;;;;7.05;100.00;100678.03;7404712;19;20406;-50
2021/11/08 03:32:28;;;;;;;14.50;2.67;;;;;;;7.10;100.00;100684.31;7392711;19;20708;-46
2021/11/08 03:35:00;;;;;;;17.57;2.43;;;;;;;7.06;100.00;100677.22;7404828;19;20392;-48
2021/11/08 03:37:37;;;;;;;9.53;2.37;;;;;;;7.09;100.00;100681.66;7396915;19;20430;-47
2021/11/08 03:40:08;;;;;;;13.00;2.93;;;;;;;7.10;100.00;100685.97;7404406;19;20411;-49
2021/11/08 03:42:38;;;;;;;9.00;2.50;;;;;;;7.11;100.00;100696.31;7396111;19;20592;-50
2021/11/08 03:45:09;;;;;;;13.37;2.80;;;;;;;7.08;100.00;100692.72;7404612;19;20402;-48
2021/11/08 03:47:39;;;;;;;13.13;3.07;;;;;;;7.02;100.00;100695.81;7396093;19;20521;-47
2021/11/08 03:50:10;;;;;;;6.50;2.20;;;;;;;7.00;100.00;100700.88;7404030;19;20446;-47
2021/11/08 03:52:44;;;;;;;10.67;3.57;;;;;;;6.94;100.00;100699.63;7398907;19;20445;-49
2021/11/08 03:55:14;;;;;;;5.93;2.13;;;;;;;6.89;100.00;100701.97;7403914;19;20446;-48
2021/11/08 03:57:44;;;;;;;8.30;2.90;;;;;;;6.88;100.00;100695.94;7397031;19;20511;-49
2021/11/08 04:00:16;;;;;;;9.30;3.23;;;;;;;6.88;100.00;100706.19;7403649;19;20457;-49
2021/11/08 04:02:46;;;;;;;8.90;2.00;;;;;;;6.82;100.00;100712.66;7398080;19;20508;-49
2021/11/08 04:05:17;;;;;;;4.60;1.90;;;;;;;6.81;100.00;100719.47;7404346;19;20850;-47
2021/11/08 04:07:49;;;;;;;10.33;3.70;;;;;;;6.83;100.00;100717.88;7398601;19;20707;-50
2021/11/08 04:10:24;;;;;;;11.10;3.10;;;;;;;6.80;100.00;100722.84;7403479;19;20453;-51
2021/11/08 04:12:56;;;;;;;8.30;3.17;;;;;;;6.83;100.00;100723.00;7394141;19;20427;-49
2021/11/08 04:15:31;;;;;;;12.13;3.53;;;;;;;6.85;100.00;100718.84;7404004;19;20409;-50
2021/11/08 04:18:01;;;;;;;15.97;3.40;;;;;;;6.86;100.00;100732.53;7396409;19;20427;-50
2021/11/08 04:20:31;;;;;;;9.17;3.23;;;;;;;6.80;100.00;100745.91;7402644;19;20389;-49
2021/11/08 04:23:03;;;;;;;15.07;4.13;;;;;;;6.80;100.00;100738.22;7396832;19;20497;-52
2021/11/08 04:25:33;;;;;;;11.00;2.70;;;;;;;6.76;100.00;100731.13;7403541;19;20438;-51
2021/11/08 04:28:02;;;;;;;21.00;4.07;;;;;;;6.75;100.00;100744.75;7393291;19;20447;-47
2021/11/08 04:30:33;;;;;;;10.17;3.00;;;;;;;6.69;100.00;100749.53;7402424;19;20450;-48
2021/11/08 04:33:16;;;;;;;10.13;3.03;;;;;;;6.73;100.00;100747.22;7394464;19;20485;-49
2021/11/08 04:35:54;;;;;;;18.17;3.57;;;;;;;6.71;100.00;100742.81;7403241;19;20466;-53
2021/11/08 04:41:17;;;;;;;11.97;4.53;;;;;;;6.68;100.00;100742.66;7401056;19;20468;-52
2021/11/08 04:43:57;;;;;;;14.83;5.30;;;;;;;6.68;100.00;100758.03;7393083;19;20444;-47
2021/11/08 04:52:05;;;;;;;12.97;4.33;;;;;;;6.59;100.00;100758.38;7398718;19;23288;-50
2021/11/08 04:54:44;;;;;;;16.13;4.37;;;;;;;6.56;100.00;100764.22;7406834;19;20400;-47
2021/11/08 04:57:42;;;;;;;14.47;4.47;;;;;;;6.56;100.00;100771.91;7394905;19;20906;-50
2021/11/08 05:22:07;;;;;;;18.73;4.50;;;;;;;6.40;100.00;100785.50;7399183;19;20398;-52
2021/11/08 05:30:10;;;;;;;18.87;4.60;;;;;;;6.38;100.00;100799.03;7400970;19;20428;-49
2021/11/08 05:32:42;;;;;;;12.70;3.43;;;;;;;6.34;100.00;100801.41;7393355;19;20425;-52
2021/11/08 05:35:15;;;;;;;14.83;3.97;;;;;;;6.33;100.00;100802.22;7401780;19;21044;-48
2021/11/08 05:37:46;;;;;;;18.80;5.00;;;;;;;6.35;100.00;100799.72;7397671;19;20483;-53
2021/11/08 05:40:22;;;;;;;13.77;4.77;;;;;;;6.30;100.00;100794.31;7398006;19;20388;-51
2021/11/08 05:42:54;;;;;;;25.17;4.80;;;;;;;6.29;100.00;100804.47;7392829;19;20426;-51
2021/11/08 05:45:26;;;;;;;17.13;5.10;;;;;;;6.34;100.00;100808.22;7400621;19;20399;-49
2021/11/08 05:47:55;;;;;;;21.27;5.30;;;;;;;6.34;100.00;100811.66;7393388;19;20761;-49
2021/11/08 05:50:24;;;;;;;19.10;5.40;;;;;;;6.33;100.00;100829.50;7400065;19;20460;-54
2021/11/08 05:52:56;;;;;;;17.00;4.43;;;;;;;6.30;100.00;100821.66;7395397;19;20496;-50
2021/11/08 05:55:31;;;;;;;20.20;5.83;;;;;;;6.31;100.00;100829.41;7400470;19;20471;-50
2021/11/08 05:58:13;;;;;;;26.03;5.07;;;;;;;6.27;100.00;100827.47;7392782;19;20768;-51
2021/11/08 06:49:32;;;;;;;24.20;3.30;;;;;;;5.99;100.00;100897.47;7399461;19;20396;-50
2021/11/08 06:52:03;;;;;;;19.73;2.93;;;;;;;5.99;100.00;100894.91;7401424;19;20419;-50
2021/11/08 06:54:33;;;;;;;31.53;3.97;;;;;;;5.99;100.00;100902.59;7406273;19;20399;-51
2021/11/08 06:57:10;;;;;;;12.43;3.97;;;;;;;6.04;100.00;100911.47;7398073;19;20785;-52
2021/11/08 06:59:40;;;;;;;16.50;2.67;;;;;;;5.94;100.00;100911.66;7405725;19;20394;-47
2021/11/08 07:02:13;;;;;;;27.70;3.50;;;;;;;5.98;100.00;100903.38;7399238;19;20460;-50
2021/11/08 07:04:43;;;;;;;25.13;3.23;;;;;;;5.97;100.00;100914.41;7405747;19;20403;-50
2021/11/08 07:07:14;;;;;;;19.00;2.70;;;;;;;5.93;100.00;100920.13;7403277;19;20451;-50
2021/11/08 07:09:44;;;;;;;13.20;2.60;;;;;;;5.99;100.00;100922.22;7406870;19;20455;-48
2021/11/08 07:12:18;;;;;;;20.80;3.40;;;;;;;5.97;100.00;100934.91;7399725;19;20435;-51
2021/11/08 07:14:48;;;;;;;27.53;10.10;;;;;;;5.98;100.00;100931.56;7405795;19;20741;-47
2021/11/08 07:17:20;;;;;;;11.27;2.30;;;;;;;5.93;100.00;100932.94;7397648;19;20407;-47
2021/11/08 07:19:49;;;;;;;12.63;2.60;;;;;;;5.89;100.00;100925.88;7404903;19;20380;-49
2021/11/08 07:22:19;;;;;;;24.80;3.33;;;;;;;5.89;100.00;100936.09;7401038;19;20427;-48
2021/11/08 07:24:48;;;;;;;14.70;2.33;;;;;;;5.87;100.00;100938.56;7408189;19;20407;-48
2021/11/08 07:27:18;;;;;;;25.63;4.17;;;;;;;5.85;100.00;100929.00;7397335;19;20414;-48
2021/11/08 07:29:48;;;;;;;13.87;2.27;;;;;;;5.87;100.00;100938.56;7402723;19;20463;-49
2021/11/08 07:32:24;;;;;;;7.43;2.20;;;;;;;5.89;100.00;100943.78;7397325;19;21448;-50
2021/11/08 07:34:54;;;;;;;22.23;2.87;;;;;;;5.91;100.00;100944.75;7405258;19;20456;-46
2021/11/08 07:37:24;;;;;;;14.07;2.10;;;;;;;5.88;100.00;100949.66;7401248;19;20421;-48
2021/11/08 07:39:54;;;;;;;19.23;2.90;;;;;;;5.91;100.00;100947.31;7404331;19;20460;-47
2021/11/08 07:42:24;;;;;;;9.90;2.37;;;;;;;5.90;100.00;100945.56;7395703;19;20935;-51
2021/11/08 07:44:53;;;;;;;21.87;3.07;;;;;;;5.93;100.00;100953.41;7404802;19;20387;-46
2021/11/08 07:47:25;;;;;;;21.27;3.20;;;;;;;5.92;100.00;100952.56;7396485;19;20730;-50
2021/11/08 07:49:55;;;;;;;10.47;2.57;;;;;;;5.99;100.00;100956.38;7401660;19;20422;-48
2021/11/08 07:52:24;;;;;;;24.13;4.13;;;;;;;6.02;100.00;100959.19;7402367;19;20449;-46
2021/11/08 07:54:54;;;;;;;15.00;2.37;;;;;;;5.97;100.00;100952.84;7407418;19;20389;-47
2021/11/08 07:57:23;;;;;;;16.43;2.70;;;;;;;6.01;100.00;100954.78;7396518;19;20484;-46
2021/11/08 07:59:53;;;;;;;13.17;4.00;;;;;;;6.11;100.00;100969.13;7407839;19;20397;-50
2021/11/08 08:02:25;;;;;;;17.63;3.13;;;;;;;6.13;100.00;100967.53;7393648;19;20413;-46
2021/11/08 08:04:54;;;;;;;17.07;2.60;;;;;;;6.22;100.00;100957.84;7404254;19;20447;-47
2021/11/08 08:07:24;;;;;;;15.20;3.40;;;;;;;6.18;100.00;100966.16;7400437;19;20416;-47
2021/11/08 08:09:53;;;;;;;49.23;15.80;;;;;;;6.24;100.00;100957.94;7402113;19;20460;-46
2021/11/08 08:12:23;;;;;;;20.93;5.50;;;;;;;6.27;100.00;100965.84;7393909;19;20427;-46
2021/11/08 08:14:53;;;;;;;28.17;8.30;;;;;;;6.24;100.00;100957.09;7403718;19;20853;-45
2021/11/08 08:17:25;;;;;;;27.17;7.17;;;;;;;6.16;100.00;100957.47;7395775;19;20487;-45
2021/11/08 08:19:54;;;;;;;18.57;5.27;;;;;;;6.16;100.00;100946.34;7402770;19;20385;-50
2021/11/08 08:22:24;;;;;;;27.67;7.37;;;;;;;6.17;100.00;100950.69;7398766;19;20498;-50
2021/11/08 08:24:53;;;;;;;23.00;3.23;;;;;;;6.21;100.00;100945.84;7406633;19;20459;-51
2021/11/08 08:27:23;;;;;;;45.43;14.60;;;;;;;6.16;100.00;100951.47;7395786;19;20429;-48
2021/11/08 08:29:53;;;;;;;22.97;4.73;;;;;;;6.19;100.00;100932.06;7401061;19;20464;-48
2021/11/08 08:32:25;;;;;;;14.47;5.30;;;;;;;6.22;100.00;100932.22;7394892;19;20483;-49
2021/11/08 08:34:55;;;;;;;25.50;4.70;;;;;;;6.18;100.00;100931.94;7403215;19;20847;-47
2021/11/08 08:37:28;;;;;;;22.60;6.07;;;;;;;6.28;100.00;100928.28;7401041;19;20794;-48
2021/11/08 08:39:57;;;;;;;43.47;13.20;;;;;;;6.26;100.00;100933.31;7401635;19;20469;-47
2021/11/08 08:42:28;;;;;;;16.27;3.17;;;;;;;6.30;100.00;100934.41;7393293;19;20769;-47
2021/11/08 08:44:57;;;;;;;16.37;3.83;;;;;;;6.32;100.00;100932.81;7399366;19;20394;-52
2021/11/08 08:47:29;;;;;;;14.87;2.90;;;;;;;6.37;100.00;100938.22;7391820;19;20419;-52
2021/11/08 08:49:59;;;;;;;22.50;3.60;;;;;;;6.28;100.00;100942.00;7398909;19;20396;-48
2021/11/08 08:52:29;;;;;;;20.80;2.90;;;;;;;6.25;100.00;100949.47;7396411;19;20419;-52
2021/11/08 08:54:59;;;;;;;16.50;2.83;;;;;;;6.27;100.00;100950.47;7401284;19;20395;-54
2021/11/08 08:57:28;;;;;;;21.17;5.27;;;;;;;6.27;100.00;100953.03;7393805;19;20512;-53
2021/11/08 09:00:02;;;;;;;7.77;2.10;;;;;;;6.29;100.00;100959.13;7398740;19;20376;-49
2021/11/08 09:02:52;;;;;;;9.03;2.03;;;;;;;6.22;100.00;100962.09;7392023;19;20415;-50
2021/11/08 09:05:22;;;;;;;7.43;2.97;;;;;;;6.32;100.00;100964.44;7400414;19;20380;-52
2021/11/08 09:07:52;;;;;;;7.67;2.23;;;;;;;6.37;100.00;100971.53;7397022;19;20423;-53
2021/11/08 09:10:23;;;;;;;9.37;2.57;;;;;;;6.43;100.00;100971.91;7398978;19;20828;-52
2021/11/08 09:12:52;;;;;;;15.17;2.67;;;;;;;6.40;100.00;100971.75;7390578;19;20423;-50
2021/11/08 09:15:22;;;;;;;18.37;4.50;;;;;;;6.53;100.00;100989.66;7400777;19;20405;-52
2021/11/08 09:17:54;;;;;;;11.50;2.80;;;;;;;6.59;100.00;100987.47;7392476;19;20431;-51
2021/11/08 09:20:24;;;;;;;23.13;4.50;;;;;;;6.71;100.00;100997.56;7397402;19;20395;-46
2021/11/08 09:22:54;;;;;;;7.57;1.90;;;;;;;6.65;100.00;100998.91;7395390;19;20430;-51
2021/11/08 09:25:25;;;;;;;11.57;1.97;;;;;;;6.62;100.00;101000.47;7400329;19;20388;-52
2021/11/08 09:27:57;;;;;;;10.93;3.17;;;;;;;6.64;100.00;101002.22;7392972;19;20898;-53
2021/11/08 09:30:29;;;;;;;14.30;3.00;;;;;;;6.52;100.00;101010.06;7398865;19;20385;-53
2021/11/08 09:33:01;;;;;;;19.00;3.10;;;;;;;6.45;100.00;101017.38;7392058;19;20418;-54
2021/11/08 09:35:36;;;;;;;12.73;3.67;;;;;;;6.58;100.00;101019.03;7400660;19;20410;-53
2021/11/08 09:38:11;;;;;;;11.83;2.20;;;;;;;6.67;100.00;101028.06;7397117;19;20416;-51
2021/11/08 09:40:43;;;;;;;8.60;2.17;;;;;;;6.91;100.00;101035.50;7399780;19;20380;-54
2021/11/08 09:43:14;;;;;;;14.60;2.47;;;;;;;6.90;100.00;101034.63;7391496;19;20428;-54
2021/11/08 09:45:45;;;;;;;5.83;1.80;;;;;;;6.94;100.00;101038.25;7400666;19;20392;-53
2021/11/08 09:48:17;;;;;;;12.23;2.27;;;;;;;6.93;100.00;101041.63;7392165;19;20413;-54
2021/11/08 09:50:47;;;;;;;16.50;3.13;;;;;;;6.88;100.00;101038.78;7399736;19;20459;-53
2021/11/08 09:53:18;;;;;;;8.90;1.97;;;;;;;6.87;100.00;101062.66;7394756;19;20503;-54
2021/11/08 09:55:48;;;;;;;10.60;2.43;;;;;;;6.88;100.00;101057.59;7400102;19;20384;-51
2021/11/08 09:58:17;;;;;;;14.27;2.47;;;;;;;6.87;100.00;101058.41;7392987;19;20432;-54
2021/11/08 10:00:52;;;;;;;13.73;3.13;;;;;;;6.94;100.00;101074.16;7399202;19;20399;-47
2021/11/08 10:03:26;;;;;;;16.83;2.30;;;;;;;6.98;100.00;101076.13;7390742;19;20857;-47
2021/11/08 10:05:57;;;;;;;7.10;2.00;;;;;;;6.95;100.00;101078.50;7399802;19;20722;-46
2021/11/08 10:08:29;;;;;;;9.17;2.60;;;;;;;6.86;100.00;101079.72;7396294;19;20420;-48
2021/11/08 10:11:01;;;;;;;16.33;2.70;;;;;;;6.89;100.00;101084.16;7398440;19;20389;-49
2021/11/08 10:13:32;;;;;;;9.00;3.40;;;;;;;6.89;100.00;101079.88;7390227;19;20429;-51
2021/11/08 10:16:08;;;;;;;8.67;2.40;;;;;;;6.85;100.00;101087.31;7399975;19;20456;-48
2021/11/08 10:18:43;;;;;;;14.13;2.70;;;;;;;6.85;100.00;101083.06;7392552;19;20428;-48
2021/11/08 10:21:14;;;;;;;13.53;3.37;;;;;;;6.89;100.00;101086.72;7398152;19;20437;-48
2021/11/08 10:23:47;;;;;;;20.53;3.60;;;;;;;6.89;100.00;101082.44;7393343;19;20418;-51
2021/11/08 10:26:19;;;;;;;12.73;2.77;;;;;;;6.82;100.00;101080.31;7397133;19;20465;-48
2021/11/08 10:28:52;;;;;;;9.20;2.10;;;;;;;6.80;100.00;101075.88;7391566;19;20510;-51
2021/11/08 10:31:28;;;;;;;11.07;2.67;;;;;;;6.77;100.00;101079.13;7402360;19;20460;-50
2021/11/08 10:34:04;;;;;;;7.80;3.10;;;;;;;6.87;100.00;101083.19;7389662;19;20448;-50
2021/11/08 10:36:34;;;;;;;11.27;3.53;;;;;;;6.96;100.00;101090.53;7403263;19;20468;-51
2021/11/08 10:39:07;;;;;;;19.07;3.10;;;;;;;6.97;100.00;101087.19;7397545;19;20500;-49
2021/11/08 10:41:39;;;;;;;19.93;3.80;;;;;;;6.99;100.00;101088.16;7393380;19;20405;-50
2021/11/08 10:44:12;;;;;;;5.70;1.80;;;;;;;6.87;100.00;101091.75;7398668;19;20632;-50
2021/11/08 10:46:43;;;;;;;10.73;3.57;;;;;;;6.97;100.00;101089.75;7395854;19;20406;-46
2021/11/08 10:49:18;;;;;;;10.17;3.50;;;;;;;6.96;100.00;101095.66;7397687;19;20378;-47
2021/11/08 10:51:52;;;;;;;12.47;3.80;;;;;;;7.02;100.00;101093.47;7393155;19;20718;-52
2021/11/08 10:54:24;;;;;;;10.60;3.73;;;;;;;6.97;100.00;101090.63;7398500;19;20402;-47
2021/11/08 10:56:58;;;;;;;20.30;4.23;;;;;;;7.02;100.00;101099.50;7393114;19;20393;-49
2021/11/08 10:59:30;;;;;;;12.87;4.70;;;;;;;7.01;100.00;101089.13;7397493;19;20410;-48
2021/11/08 11:02:02;;;;;;;8.57;2.67;;;;;;;7.03;100.00;101079.88;7389272;19;20522;-47
2021/11/08 11:04:38;;;;;;;19.33;3.67;;;;;;;7.10;100.00;101076.88;7400197;19;20695;-50
2021/11/08 11:07:08;;;;;;;10.30;3.17;;;;;;;7.10;100.00;101068.28;7394748;19;20708;-48
2021/11/08 11:09:39;;;;;;;13.60;3.30;;;;;;;7.11;100.00;101072.63;7401468;19;20411;-47
2021/11/08 11:12:13;;;;;;;9.20;2.77;;;;;;;7.12;100.00;101070.16;7385639;19;20491;-50
2021/11/08 11:14:45;;;;;;;19.23;4.23;;;;;;;7.20;100.00;101073.19;7398050;19;20379;-46
2021/11/08 11:17:16;;;;;;;10.80;3.60;;;;;;;7.22;100.00;101066.47;7389654;19;20426;-50
2021/11/08 11:19:49;;;;;;;23.07;4.63;;;;;;;7.25;100.00;101065.78;7397091;19;20455;-48
2021/11/08 11:22:21;;;;;;;21.40;4.50;;;;;;;7.22;100.00;101057.91;7392449;19;20421;-50
2021/11/08 11:24:53;;;;;;;33.53;13.00;;;;;;;7.22;100.00;101060.47;7398022;19;20388;-46
2021/11/08 11:27:32;;;;;;;14.97;5.23;;;;;;;7.23;100.00;101059.66;7388916;19;20417;-48
2021/11/08 11:30:18;;;;;;;34.67;9.43;;;;;;;7.26;100.00;101064.97;7397268;19;20393;-49
2021/11/08 11:32:57;;;;;;;16.03;5.70;;;;;;;7.30;100.00;101069.50;7387701;19;20862;-50
2021/11/08 11:35:37;;;;;;;19.40;8.80;;;;;;;7.27;100.00;101064.16;7397146;19;20830;-49
2021/11/08 11:38:08;;;;;;;20.20;5.40;;;;;;;7.25;100.00;101053.84;7397224;19;20424;-47
2021/11/08 11:40:40;;;;;;;18.70;5.37;;;;;;;7.23;100.00;101057.09;7404386;19;20395;-49
2021/11/08 11:43:11;;;;;;;20.43;6.93;;;;;;;7.18;100.00;101054.22;7395499;19;20445;-47
2021/11/08 11:45:47;;;;;;;15.90;5.30;;;;;;;7.26;100.00;101060.75;7403883;19;20445;-51
2021/11/08 11:48:18;;;;;;;21.87;7.57;;;;;;;7.30;100.00;101054.09;7397136;19;20942;-47
2021/11/08 11:51:13;;;;;;;16.53;5.77;;;;;;;7.25;100.00;101055.50;7403326;19;20386;-49
2021/11/08 11:53:44;;;;;;;19.80;8.20;;;;;;;7.20;100.00;101057.81;7397341;19;20437;-51
2021/11/08 11:56:14;;;;;;;31.10;11.50;;;;;;;7.32;100.00;101061.91;7404775;19;20389;-47
2021/11/08 11:58:44;;;;;;;12.90;5.97;;;;;;;7.23;100.00;101062.25;7397230;19;20424;-47
2021/11/08 12:01:17;;;;;;;20.10;4.73;;;;;;;7.25;100.00;101068.34;7403380;19;20452;-49
2021/11/08 12:03:47;;;;;;;13.43;5.43;;;;;;;7.23;100.00;101069.94;7394050;19;20488;-48
2021/11/08 12:06:24;;;;;;;16.90;6.03;;;;;;;7.23;100.00;101067.38;7404115;19;20397;-48
2021/11/08 12:08:55;;;;;;;60.43;17.83;;;;;;;7.29;100.00;101075.44;7399333;19;20887;-53
2021/11/08 12:11:32;;;;;;;9.67;3.90;;;;;;;7.20;100.00;101077.44;7400456;19;20403;-53
2021/11/08 12:14:03;;;;;;;14.80;5.33;;;;;;;7.30;100.00;101074.63;7397488;19;20426;-52
2021/11/08 12:16:33;;;;;;;16.63;5.17;;;;;;;7.33;100.00;101079.94;7400601;19;20460;-51
2021/11/08 12:19:05;;;;;;;16.37;5.63;;;;;;;7.35;100.00;101086.06;7399920;19;20430;-49
2021/11/08 12:21:38;;;;;;;18.53;7.27;;;;;;;7.38;100.00;101086.25;7400762;19;20385;-49
2021/11/08 12:24:18;;;;;;;21.97;8.63;;;;;;;7.38;100.00;101083.69;7399533;19;20416;-51
2021/11/08 12:26:48;;;;;;;22.63;7.80;;;;;;;7.37;100.00;101088.72;7392960;19;20395;-54
2021/11/08 12:29:20;;;;;;;14.53;5.93;;;;;;;7.41;100.00;101089.00;7400319;19;20411;-52
2021/11/08 12:32:05;;;;;;;15.80;6.53;;;;;;;7.42;100.00;101093.34;7393555;19;20439;-49
2021/11/08 12:34:41;;;;;;;19.00;5.83;;;;;;;7.47;100.00;101102.97;7402429;19;20387;-51
2021/11/08 12:37:13;;;;;;;18.90;7.07;;;;;;;7.43;100.00;101089.97;7395888;19;20694;-47
2021/11/08 12:39:44;;;;;;;9.03;4.90;;;;;;;7.46;100.00;101098.66;7400021;19;20474;-48
2021/11/08 12:42:15;;;;;;;10.93;4.20;;;;;;;7.43;100.00;101102.81;7393381;19;20427;-49
2021/11/08 12:44:46;;;;;;;8.60;3.50;;;;;;;7.37;100.00;101094.75;7400670;19;20396;-53
2021/11/08 12:47:16;;;;;;;11.27;4.83;;;;;;;7.47;100.00;101093.63;7392990;19;20417;-52
2021/11/08 12:49:53;;;;;;;12.50;4.57;;;;;;;7.47;100.00;101095.28;7398765;19;20881;-52
2021/11/08 12:52:27;;;;;;;15.17;4.67;;;;;;;7.48;100.00;101097.09;7394952;19;20433;-52
2021/11/08 12:55:04;;;;;;;12.97;3.60;;;;;;;7.47;100.00;101102.97;7402171;19;20402;-53
2021/11/08 12:57:35;;;;;;;15.60;4.63;;;;;;;7.50;100.00;101101.50;7393682;19;20416;-53
2021/11/08 13:00:17;;;;;;;11.50;3.70;;;;;;;7.49;100.00;101101.41;7404035;19;20402;-46
2021/11/08 13:02:54;;;;;;;7.70;3.00;;;;;;;7.52;100.00;101106.72;7393177;19;20473;-48
2021/11/08 13:05:29;;;;;;;7.60;2.60;;;;;;;7.50;100.00;101105.75;7401555;19;20397;-52